Time;durP1;ratioP1;P1;durP2;ratioP2;P2;SDS_P1;SDS_P2;PMS_P1;PMS_P2;Temp;Humidity;BMP_temperature;BMP_pressure;BME280_temperature;BME280_humidity;BME280_pressure;Samples;Min_cycle;Max_cycle;Signal;HPM_P1;HPM_P2
2021/12/22 00:02:15;;;;;;;23.05;14.32;;;;;;;;;;5015507;28;20099;-46
2021/12/22 00:04:44;;;;;;;23.30;14.73;;;;;;;;;;5018330;28;20041;-48
2021/12/22 00:07:11;;;;;;;26.17;14.85;;;;;;;;;;5023775;28;20026;-48
2021/12/22 00:09:37;;;;;;;27.65;17.35;;;;;;;;;;5031631;28;20033;-49
2021/12/22 00:12:03;;;;;;;29.50;16.50;;;;;;;;;;5024938;28;20033;-47
2021/12/22 00:14:29;;;;;;;28.58;16.90;;;;;;;;;;5021400;28;20033;-48
2021/12/22 00:16:54;;;;;;;30.05;17.90;;;;;;;;;;5029141;28;20022;-51
2021/12/22 00:19:20;;;;;;;26.10;15.95;;;;;;;;;;5025844;28;20522;-46
2021/12/22 00:21:46;;;;;;;28.23;15.57;;;;;;;;;;5023353;28;20025;-50
2021/12/22 00:24:11;;;;;;;23.58;14.60;;;;;;;;;;5023080;28;20086;-53
2021/12/22 00:26:38;;;;;;;16.48;11.68;;;;;;;;;;5021725;28;20487;-51
2021/12/22 00:29:04;;;;;;;15.73;10.57;;;;;;;;;;5024049;28;20044;-47
2021/12/22 00:31:38;;;;;;;16.70;10.05;;;;;;;;;;5032014;28;20034;-53
2021/12/22 00:34:05;;;;;;;16.48;9.98;;;;;;;;;;5025038;28;20029;-52
2021/12/22 00:36:30;;;;;;;20.17;10.18;;;;;;;;;;5029953;28;20025;-46
2021/12/22 00:38:56;;;;;;;17.48;10.43;;;;;;;;;;5023699;28;20610;-47
2021/12/22 00:41:22;;;;;;;10.68;9.15;;;;;;;;;;5028245;28;20037;-49
2021/12/22 00:43:50;;;;;;;17.77;10.27;;;;;;;;;;5017606;28;20041;-54
2021/12/22 00:46:16;;;;;;;12.95;9.15;;;;;;;;;;5030429;28;20059;-47
2021/12/22 00:48:41;;;;;;;13.02;8.90;;;;;;;;;;5034900;28;20151;-55
2021/12/22 00:51:08;;;;;;;15.93;9.50;;;;;;;;;;5027063;28;20053;-54
2021/12/22 00:53:34;;;;;;;14.80;9.13;;;;;;;;;;5016316;28;20546;-46
2021/12/22 00:56:02;;;;;;;16.38;9.95;;;;;;;;;;5019269;28;20550;-50
2021/12/22 00:58:27;;;;;;;15.75;9.25;;;;;;;;;;5032807;28;20077;-50
2021/12/22 01:00:53;;;;;;;14.45;9.77;;;;;;;;;;5028653;28;20057;-49
2021/12/22 01:03:20;;;;;;;15.73;10.18;;;;;;;;;;5031258;28;20558;-48
2021/12/22 01:05:47;;;;;;;18.27;11.07;;;;;;;;;;5030055;28;20490;-53
2021/12/22 01:08:13;;;;;;;18.67;9.65;;;;;;;;;;5025326;28;20348;-50
2021/12/22 01:10:39;;;;;;;12.68;9.43;;;;;;;;;;5021057;28;20116;-53
2021/12/22 01:13:07;;;;;;;15.27;9.95;;;;;;;;;;5028911;28;20116;-54
2021/12/22 01:15:35;;;;;;;16.27;10.75;;;;;;;;;;5026074;28;20033;-51
2021/12/22 01:18:11;;;;;;;18.05;10.38;;;;;;;;;;5036630;28;20108;-49
2021/12/22 01:20:56;;;;;;;14.52;9.63;;;;;;;;;;5030533;28;20029;-51
2021/12/22 01:23:22;;;;;;;10.48;8.73;;;;;;;;;;5018116;28;20060;-54
2021/12/22 01:25:49;;;;;;;16.17;9.98;;;;;;;;;;5025175;28;20617;-52
2021/12/22 01:28:22;;;;;;;23.63;9.70;;;;;;;;;;5031259;28;20160;-46
2021/12/22 01:30:48;;;;;;;16.55;10.13;;;;;;;;;;5025741;28;20064;-55
2021/12/22 01:33:16;;;;;;;12.57;8.73;;;;;;;;;;5021864;28;20026;-50
2021/12/22 01:35:43;;;;;;;17.15;9.80;;;;;;;;;;5029700;28;20059;-53
2021/12/22 01:38:09;;;;;;;14.23;9.73;;;;;;;;;;5027546;28;20428;-47
2021/12/22 01:40:38;;;;;;;14.68;10.02;;;;;;;;;;5024165;28;20033;-54
2021/12/22 01:43:05;;;;;;;16.08;8.98;;;;;;;;;;5037597;28;20038;-54
2021/12/22 01:46:07;;;;;;;19.90;9.85;;;;;;;;;;5027337;28;20172;-53
2021/12/22 01:51:55;;;;;;;14.00;8.75;;;;;;;;;;5030812;28;20034;-52
2021/12/22 01:54:21;;;;;;;15.70;9.75;;;;;;;;;;5025306;28;20046;-49
2021/12/22 01:56:50;;;;;;;23.38;10.38;;;;;;;;;;5028756;28;20121;-53
2021/12/22 01:59:16;;;;;;;17.63;9.38;;;;;;;;;;5028356;28;20037;-51
2021/12/22 02:01:42;;;;;;;16.33;9.70;;;;;;;;;;5030373;28;20422;-51
2021/12/22 02:04:11;;;;;;;20.52;9.80;;;;;;;;;;5026274;28;20034;-50
2021/12/22 02:06:39;;;;;;;15.70;9.75;;;;;;;;;;5027169;28;20429;-50
2021/12/22 02:09:04;;;;;;;18.02;9.25;;;;;;;;;;5026242;28;20126;-51
2021/12/22 02:11:30;;;;;;;16.83;9.23;;;;;;;;;;5024300;28;20116;-48
2021/12/22 02:14:00;;;;;;;14.10;9.45;;;;;;;;;;5034592;28;20026;-49
2021/12/22 02:16:30;;;;;;;14.27;9.55;;;;;;;;;;5034266;28;20037;-55
2021/12/22 02:18:57;;;;;;;17.77;9.10;;;;;;;;;;5029725;28;20127;-49
2021/12/22 02:21:26;;;;;;;18.00;9.35;;;;;;;;;;5029312;28;20125;-49
2021/12/22 02:23:52;;;;;;;17.00;8.93;;;;;;;;;;5018661;28;20057;-52
2021/12/22 02:26:21;;;;;;;12.05;8.52;;;;;;;;;;5024175;28;20029;-54
2021/12/22 02:28:55;;;;;;;15.00;8.95;;;;;;;;;;5026778;28;20144;-48
2021/12/22 02:31:21;;;;;;;12.73;8.18;;;;;;;;;;5030558;28;20087;-52
2021/12/22 02:33:49;;;;;;;13.10;8.93;;;;;;;;;;5024340;28;20034;-53
2021/12/22 02:38:47;;;;;;;17.85;8.57;;;;;;;;;;5029079;28;20083;-52
2021/12/22 02:41:15;;;;;;;12.40;8.70;;;;;;;;;;5024778;28;20500;-54
2021/12/22 02:43:48;;;;;;;12.65;8.68;;;;;;;;;;5032812;28;20123;-48
2021/12/22 02:46:16;;;;;;;10.27;7.80;;;;;;;;;;5027801;28;20042;-51
2021/12/22 02:48:42;;;;;;;15.20;9.80;;;;;;;;;;5028374;28;20037;-50
2021/12/22 02:51:08;;;;;;;12.38;9.10;;;;;;;;;;5029506;28;20029;-49
2021/12/22 02:53:59;;;;;;;11.27;8.65;;;;;;;;;;5023594;28;20108;-52
2021/12/22 02:56:36;;;;;;;10.88;8.40;;;;;;;;;;5021654;28;20063;-49
2021/12/22 02:59:17;;;;;;;12.95;7.53;;;;;;;;;;5026881;28;20041;-53
2021/12/22 03:04:17;;;;;;;13.77;8.73;;;;;;;;;;5026502;28;20038;-52
2021/12/22 03:06:54;;;;;;;10.25;8.02;;;;;;;;;;5027115;28;20060;-51
2021/12/22 03:09:26;;;;;;;11.13;8.00;;;;;;;;;;5029020;28;20041;-52
2021/12/22 03:11:53;;;;;;;14.05;8.43;;;;;;;;;;5024171;28;20071;-51
2021/12/22 03:14:20;;;;;;;15.15;8.40;;;;;;;;;;5024955;28;20494;-54
2021/12/22 03:16:47;;;;;;;13.02;7.93;;;;;;;;;;5023030;28;20033;-51
2021/12/22 03:19:18;;;;;;;13.45;8.50;;;;;;;;;;5041295;28;20033;-54
2021/12/22 03:21:46;;;;;;;14.05;8.35;;;;;;;;;;5025627;28;20030;-54
2021/12/22 03:24:12;;;;;;;14.32;7.40;;;;;;;;;;5020491;28;20065;-52
2021/12/22 03:26:42;;;;;;;14.52;8.38;;;;;;;;;;5024134;28;20057;-54
2021/12/22 03:29:09;;;;;;;14.10;8.65;;;;;;;;;;5020233;28;20056;-53
2021/12/22 03:31:35;;;;;;;9.10;7.88;;;;;;;;;;5022755;28;20034;-54
2021/12/22 03:34:01;;;;;;;14.30;8.35;;;;;;;;;;5026988;28;20026;-54
2021/12/22 03:36:28;;;;;;;8.88;6.88;;;;;;;;;;5023496;28;20041;-54
2021/12/22 03:38:53;;;;;;;14.32;6.90;;;;;;;;;;5032127;28;20033;-52
2021/12/22 03:41:19;;;;;;;12.30;7.18;;;;;;;;;;5023106;28;20436;-54
2021/12/22 03:43:45;;;;;;;17.85;8.18;;;;;;;;;;5020345;28;20622;-52
2021/12/22 03:46:11;;;;;;;16.00;7.43;;;;;;;;;;5019531;28;20379;-55
2021/12/22 03:48:37;;;;;;;9.70;7.47;;;;;;;;;;5026415;28;20029;-52
2021/12/22 03:51:03;;;;;;;15.00;7.78;;;;;;;;;;5022109;28;20030;-54
2021/12/22 03:53:29;;;;;;;10.38;7.43;;;;;;;;;;5018534;28;20032;-55
2021/12/22 03:55:55;;;;;;;13.35;7.70;;;;;;;;;;5031553;28;20034;-54
2021/12/22 03:58:21;;;;;;;9.32;7.20;;;;;;;;;;5026169;28;20052;-54
2021/12/22 04:00:50;;;;;;;10.68;7.30;;;;;;;;;;5026243;28;20498;-53
2021/12/22 04:03:19;;;;;;;11.15;7.55;;;;;;;;;;5027767;28;20060;-55
2021/12/22 04:05:46;;;;;;;11.85;7.55;;;;;;;;;;5027664;28;20033;-54
2021/12/22 04:08:13;;;;;;;11.88;7.90;;;;;;;;;;5021414;28;20676;-53
2021/12/22 04:10:40;;;;;;;13.52;8.02;;;;;;;;;;5021677;28;20026;-55
2021/12/22 04:13:06;;;;;;;8.43;6.82;;;;;;;;;;5019923;28;20030;-50
2021/12/22 04:15:32;;;;;;;12.32;7.68;;;;;;;;;;5018285;28;20040;-47
2021/12/22 04:17:57;;;;;;;9.75;7.35;;;;;;;;;;5028133;28;20378;-47
2021/12/22 04:20:24;;;;;;;16.45;7.85;;;;;;;;;;5022330;28;20066;-49
2021/12/22 04:22:50;;;;;;;11.23;7.63;;;;;;;;;;5018736;28;20041;-48
2021/12/22 04:25:21;;;;;;;8.35;7.38;;;;;;;;;;5026161;28;20033;-48
2021/12/22 04:27:52;;;;;;;9.97;8.00;;;;;;;;;;5022417;28;20100;-50
2021/12/22 04:30:19;;;;;;;12.27;7.68;;;;;;;;;;5021016;28;20281;-54
2021/12/22 04:32:44;;;;;;;16.52;7.05;;;;;;;;;;5023277;28;20399;-49
2021/12/22 04:35:10;;;;;;;8.63;6.85;;;;;;;;;;5021298;28;20037;-49
2021/12/22 04:37:36;;;;;;;15.65;7.63;;;;;;;;;;5021275;28;20056;-48
2021/12/22 04:40:03;;;;;;;10.68;7.32;;;;;;;;;;5033788;28;20470;-52
2021/12/22 04:42:29;;;;;;;10.27;7.18;;;;;;;;;;5029983;28;20125;-52
2021/12/22 04:44:57;;;;;;;8.90;6.70;;;;;;;;;;5028502;28;20112;-52
2021/12/22 04:47:23;;;;;;;10.73;7.78;;;;;;;;;;5022165;28;20144;-50
2021/12/22 04:49:48;;;;;;;15.40;7.18;;;;;;;;;;5025229;28;20053;-49
2021/12/22 04:52:17;;;;;;;11.75;7.05;;;;;;;;;;5034674;28;20025;-52
2021/12/22 04:54:51;;;;;;;9.15;6.80;;;;;;;;;;5026940;28;20036;-50
2021/12/22 04:57:17;;;;;;;9.55;7.45;;;;;;;;;;5023727;28;20509;-50
2021/12/22 04:59:42;;;;;;;11.93;7.18;;;;;;;;;;5021384;28;20026;-52
2021/12/22 05:02:09;;;;;;;11.25;7.30;;;;;;;;;;5020045;28;20473;-51
2021/12/22 05:04:36;;;;;;;9.90;6.55;;;;;;;;;;5026523;28;20397;-47
2021/12/22 05:07:02;;;;;;;8.88;7.30;;;;;;;;;;5035422;28;20062;-47
2021/12/22 05:09:28;;;;;;;9.15;6.68;;;;;;;;;;5028596;28;20422;-49
2021/12/22 05:11:53;;;;;;;12.63;6.45;;;;;;;;;;5020041;28;20029;-52
2021/12/22 05:14:19;;;;;;;11.02;7.00;;;;;;;;;;5026143;28;20478;-49
2021/12/22 05:16:47;;;;;;;12.00;6.93;;;;;;;;;;5031947;28;20037;-49
2021/12/22 05:19:16;;;;;;;12.18;7.20;;;;;;;;;;5024227;28;20372;-52
2021/12/22 05:21:43;;;;;;;11.05;7.05;;;;;;;;;;5022856;28;20109;-52
2021/12/22 05:24:09;;;;;;;10.10;6.95;;;;;;;;;;5027178;28;20494;-48
2021/12/22 05:26:36;;;;;;;11.30;7.45;;;;;;;;;;5028865;28;20033;-52
2021/12/22 05:29:01;;;;;;;9.50;6.97;;;;;;;;;;5024764;28;20502;-50
2021/12/22 05:31:27;;;;;;;11.32;6.43;;;;;;;;;;5029518;28;20036;-51
2021/12/22 05:33:54;;;;;;;13.10;7.53;;;;;;;;;;5028059;28;20041;-52
2021/12/22 05:36:19;;;;;;;7.20;6.40;;;;;;;;;;5026039;28;20775;-46
2021/12/22 05:38:45;;;;;;;8.43;7.18;;;;;;;;;;5028076;28;20053;-47
2021/12/22 05:41:11;;;;;;;9.95;6.90;;;;;;;;;;5023257;28;20030;-46
2021/12/22 05:43:37;;;;;;;9.00;6.75;;;;;;;;;;5028304;28;20505;-49
2021/12/22 05:46:03;;;;;;;10.48;6.63;;;;;;;;;;5038664;28;20021;-49
2021/12/22 05:48:29;;;;;;;11.40;7.15;;;;;;;;;;5022789;28;20033;-50
2021/12/22 05:50:58;;;;;;;10.00;7.10;;;;;;;;;;5025410;28;20029;-51
2021/12/22 05:53:25;;;;;;;13.93;7.47;;;;;;;;;;5024922;28;20090;-49
2021/12/22 05:55:51;;;;;;;10.00;6.57;;;;;;;;;;5028284;28;20478;-49
2021/12/22 05:58:17;;;;;;;11.82;7.22;;;;;;;;;;5032387;28;20083;-48
2021/12/22 06:00:42;;;;;;;10.65;7.05;;;;;;;;;;5026012;28;20479;-48
2021/12/22 06:03:10;;;;;;;9.48;6.28;;;;;;;;;;5029655;28;20050;-49
2021/12/22 06:05:37;;;;;;;11.15;6.90;;;;;;;;;;5025942;28;20107;-48
2021/12/22 06:08:03;;;;;;;11.02;7.22;;;;;;;;;;5029400;28;20112;-47
2021/12/22 06:10:29;;;;;;;12.45;6.93;;;;;;;;;;5027396;28;20106;-51
2021/12/22 06:12:55;;;;;;;10.15;7.15;;;;;;;;;;5027793;28;20506;-49
2021/12/22 06:15:21;;;;;;;9.98;6.65;;;;;;;;;;5023778;28;20112;-49
2021/12/22 06:17:52;;;;;;;9.98;7.22;;;;;;;;;;5027612;28;20021;-48
2021/12/22 06:20:18;;;;;;;15.27;7.07;;;;;;;;;;5023602;28;20040;-47
2021/12/22 06:22:44;;;;;;;7.82;6.35;;;;;;;;;;5018256;28;20403;-48
2021/12/22 06:25:10;;;;;;;11.45;6.90;;;;;;;;;;5029616;28;20431;-49
2021/12/22 06:27:35;;;;;;;10.63;6.78;;;;;;;;;;5026581;28;20041;-48
2021/12/22 06:30:01;;;;;;;9.98;6.43;;;;;;;;;;5028229;28;20031;-52
2021/12/22 06:32:29;;;;;;;10.18;6.50;;;;;;;;;;5024418;28;20032;-49
2021/12/22 06:34:54;;;;;;;8.90;6.80;;;;;;;;;;5017978;28;20034;-49
2021/12/22 06:37:20;;;;;;;11.35;6.63;;;;;;;;;;5028062;28;21859;-47
2021/12/22 06:39:45;;;;;;;10.95;6.93;;;;;;;;;;5024742;28;20026;-50
2021/12/22 06:42:11;;;;;;;10.02;6.25;;;;;;;;;;5024294;28;20026;-48
2021/12/22 06:44:37;;;;;;;10.40;6.55;;;;;;;;;;5031417;28;20113;-49
2021/12/22 06:47:03;;;;;;;11.43;6.28;;;;;;;;;;5024007;28;20033;-54
2021/12/22 06:49:29;;;;;;;9.57;6.05;;;;;;;;;;5019375;28;20038;-48
2021/12/22 06:51:54;;;;;;;8.07;6.10;;;;;;;;;;5017125;28;20033;-49
2021/12/22 06:54:20;;;;;;;8.18;6.20;;;;;;;;;;5020319;28;20046;-49
2021/12/22 06:56:46;;;;;;;8.27;5.68;;;;;;;;;;5027683;28;20064;-47
2021/12/22 06:59:13;;;;;;;12.25;6.38;;;;;;;;;;5027204;28;20142;-53
2021/12/22 07:01:39;;;;;;;8.75;6.50;;;;;;;;;;5022833;28;20483;-55
2021/12/22 07:04:06;;;;;;;9.88;5.60;;;;;;;;;;5035172;28;20044;-51
2021/12/22 07:06:32;;;;;;;7.82;7.03;;;;;;;;;;5032990;28;20467;-46
2021/12/22 07:08:58;;;;;;;10.80;6.50;;;;;;;;;;5020731;28;20180;-49
2021/12/22 07:11:25;;;;;;;11.05;7.60;;;;;;;;;;5028100;28;20106;-49
2021/12/22 07:13:52;;;;;;;11.23;7.28;;;;;;;;;;5020288;28;20102;-48
2021/12/22 07:16:18;;;;;;;10.52;7.00;;;;;;;;;;5020647;28;20041;-49
2021/12/22 07:18:43;;;;;;;15.88;6.65;;;;;;;;;;5020758;28;20427;-51
2021/12/22 07:21:10;;;;;;;10.38;6.72;;;;;;;;;;5032511;28;20064;-51
2021/12/22 07:23:37;;;;;;;8.70;6.45;;;;;;;;;;5027345;28;20548;-49
2021/12/22 07:26:04;;;;;;;10.57;6.35;;;;;;;;;;5018328;28;20442;-52
2021/12/22 07:28:29;;;;;;;9.63;6.28;;;;;;;;;;5027394;28;20037;-52
2021/12/22 07:30:55;;;;;;;9.05;6.30;;;;;;;;;;5029137;28;20057;-48
2021/12/22 07:33:21;;;;;;;7.90;6.72;;;;;;;;;;5015292;28;20537;-50
2021/12/22 07:36:03;;;;;;;8.32;6.15;;;;;;;;;;5020618;28;20032;-47
2021/12/22 07:38:40;;;;;;;10.63;6.82;;;;;;;;;;5019937;28;20041;-52
2021/12/22 07:41:08;;;;;;;7.97;6.22;;;;;;;;;;5054114;28;20124;-48
2021/12/22 07:43:35;;;;;;;10.48;5.70;;;;;;;;;;5023213;28;20076;-53
2021/12/22 07:46:02;;;;;;;7.70;5.97;;;;;;;;;;5039582;28;20039;-48
2021/12/22 07:48:28;;;;;;;6.43;5.60;;;;;;;;;;5024381;28;20029;-50
2021/12/22 07:50:54;;;;;;;13.80;6.68;;;;;;;;;;5022795;28;20078;-53
2021/12/22 07:53:20;;;;;;;9.40;6.82;;;;;;;;;;5023430;28;20033;-48
2021/12/22 07:55:47;;;;;;;14.05;7.03;;;;;;;;;;5024741;28;20038;-52
2021/12/22 07:58:14;;;;;;;12.15;6.50;;;;;;;;;;5026755;28;20025;-50
2021/12/22 08:00:40;;;;;;;18.90;6.35;;;;;;;;;;5030624;28;20044;-48
2021/12/22 08:03:06;;;;;;;12.70;7.20;;;;;;;;;;5029622;28;20036;-54
2021/12/22 08:05:32;;;;;;;8.20;6.05;;;;;;;;;;5016983;28;20360;-50
2021/12/22 08:07:59;;;;;;;7.18;5.65;;;;;;;;;;5025658;28;20034;-47
2021/12/22 08:10:25;;;;;;;9.45;6.30;;;;;;;;;;5021038;28;20467;-49
2021/12/22 08:12:51;;;;;;;8.98;5.60;;;;;;;;;;5029574;28;20087;-54
2021/12/22 08:15:17;;;;;;;10.48;6.70;;;;;;;;;;5030023;28;20039;-52
2021/12/22 08:17:43;;;;;;;9.18;6.22;;;;;;;;;;5027218;28;20029;-48
2021/12/22 08:20:09;;;;;;;8.40;5.90;;;;;;;;;;5030453;28;20032;-50
2021/12/22 08:22:35;;;;;;;8.85;6.15;;;;;;;;;;5034978;28;20040;-50
2021/12/22 08:25:01;;;;;;;9.60;6.40;;;;;;;;;;5029997;28;20597;-51
2021/12/22 08:27:27;;;;;;;8.77;6.25;;;;;;;;;;5026772;28;20458;-49
2021/12/22 08:29:53;;;;;;;7.75;6.30;;;;;;;;;;5025592;28;20029;-51
2021/12/22 08:32:19;;;;;;;8.65;6.05;;;;;;;;;;5027463;28;20417;-48
2021/12/22 08:34:47;;;;;;;11.23;6.88;;;;;;;;;;5020451;28;20040;-49
2021/12/22 08:39:59;;;;;;;7.88;5.85;;;;;;;;;;5028627;28;20060;-50
2021/12/22 08:42:25;;;;;;;6.57;5.78;;;;;;;;;;5022192;28;20030;-54
2021/12/22 08:44:52;;;;;;;10.30;6.30;;;;;;;;;;5025398;28;20029;-50
2021/12/22 08:47:19;;;;;;;8.27;5.95;;;;;;;;;;5030566;28;20551;-52
2021/12/22 08:49:45;;;;;;;8.20;6.43;;;;;;;;;;5022786;28;20026;-50
2021/12/22 08:52:11;;;;;;;10.02;7.13;;;;;;;;;;5032637;28;20113;-49
2021/12/22 08:54:38;;;;;;;7.20;5.97;;;;;;;;;;5027334;28;20037;-51
2021/12/22 08:57:04;;;;;;;10.18;5.93;;;;;;;;;;5034371;28;20081;-47
2021/12/22 08:59:31;;;;;;;7.65;6.15;;;;;;;;;;5023490;28;20727;-49
2021/12/22 09:01:57;;;;;;;8.77;6.15;;;;;;;;;;5025770;28;20516;-48
2021/12/22 09:04:23;;;;;;;7.38;6.18;;;;;;;;;;5023044;28;20029;-50
2021/12/22 09:06:50;;;;;;;7.47;5.35;;;;;;;;;;5031611;28;20196;-52
2021/12/22 09:09:17;;;;;;;7.72;5.72;;;;;;;;;;5020885;28;20061;-50
2021/12/22 09:11:43;;;;;;;7.68;5.82;;;;;;;;;;5022926;28;20026;-54
2021/12/22 09:14:10;;;;;;;7.20;5.93;;;;;;;;;;5026560;28;20573;-52
2021/12/22 09:16:38;;;;;;;10.35;5.38;;;;;;;;;;5032724;28;20099;-47
2021/12/22 09:19:06;;;;;;;11.95;5.97;;;;;;;;;;5017973;28;20029;-53
2021/12/22 09:21:32;;;;;;;10.27;5.78;;;;;;;;;;5021144;28;20160;-53
2021/12/22 09:23:58;;;;;;;9.65;5.43;;;;;;;;;;5024010;28;20045;-50
2021/12/22 09:26:24;;;;;;;8.05;5.57;;;;;;;;;;5026545;28;20022;-53
2021/12/22 09:28:51;;;;;;;10.73;6.07;;;;;;;;;;5022927;28;20461;-48
2021/12/22 09:31:17;;;;;;;11.35;5.15;;;;;;;;;;5027320;28;20119;-49
2021/12/22 09:33:44;;;;;;;11.95;5.72;;;;;;;;;;5033082;28;20038;-50
2021/12/22 09:36:11;;;;;;;8.15;5.70;;;;;;;;;;5024634;28;20040;-55
2021/12/22 09:38:38;;;;;;;8.35;5.63;;;;;;;;;;5023313;28;20041;-49
2021/12/22 09:41:04;;;;;;;7.25;5.35;;;;;;;;;;5020621;28;20514;-50
2021/12/22 09:43:30;;;;;;;8.35;5.13;;;;;;;;;;5026919;28;20025;-49
2021/12/22 09:46:02;;;;;;;10.07;5.90;;;;;;;;;;5020685;28;20478;-51
2021/12/22 09:53:28;;;;;;;7.18;5.25;;;;;;;;;;5020123;28;20044;-49
2021/12/22 09:55:56;;;;;;;11.07;5.13;;;;;;;;;;5019738;28;20030;-54
2021/12/22 09:58:22;;;;;;;6.28;4.97;;;;;;;;;;5026289;28;20036;-52
2021/12/22 10:00:49;;;;;;;5.93;4.60;;;;;;;;;;5025771;28;20033;-54
2021/12/22 10:03:15;;;;;;;7.57;5.57;;;;;;;;;;5034211;28;20112;-50
2021/12/22 10:05:43;;;;;;;8.35;5.60;;;;;;;;;;5025052;28;20037;-52
2021/12/22 10:08:13;;;;;;;11.60;6.03;;;;;;;;;;5023377;28;20041;-53
2021/12/22 10:10:51;;;;;;;9.25;6.72;;;;;;;;;;5023131;28;20030;-50
2021/12/22 10:13:19;;;;;;;19.40;9.55;;;;;;;;;;5020874;28;20098;-53
2021/12/22 10:15:46;;;;;;;9.52;6.90;;;;;;;;;;5023412;28;20042;-54
2021/12/22 10:18:13;;;;;;;10.68;6.07;;;;;;;;;;5028719;28;20026;-54
2021/12/22 10:20:41;;;;;;;6.30;5.50;;;;;;;;;;5024332;28;20041;-53
2021/12/22 10:23:36;;;;;;;11.50;6.00;;;;;;;;;;5017909;28;20057;-50
2021/12/22 10:26:06;;;;;;;9.55;6.18;;;;;;;;;;5015228;28;20913;-51
2021/12/22 10:28:57;;;;;;;7.50;5.53;;;;;;;;;;5023823;28;20522;-49
2021/12/22 10:31:36;;;;;;;8.27;5.60;;;;;;;;;;5026062;28;20037;-53
2021/12/22 10:34:14;;;;;;;12.15;6.55;;;;;;;;;;5023743;28;20124;-52
2021/12/22 10:36:45;;;;;;;11.02;5.97;;;;;;;;;;5029396;28;20100;-49
2021/12/22 10:39:27;;;;;;;9.80;6.35;;;;;;;;;;5022289;28;20044;-54
2021/12/22 10:42:01;;;;;;;9.52;6.80;;;;;;;;;;5028766;28;20033;-50
2021/12/22 10:44:41;;;;;;;9.18;6.00;;;;;;;;;;5020228;28;20033;-49
2021/12/22 10:47:19;;;;;;;12.05;6.45;;;;;;;;;;5023918;28;20032;-48
2021/12/22 10:50:22;;;;;;;10.98;6.35;;;;;;;;;;5019003;28;20071;-52
2021/12/22 10:52:50;;;;;;;7.75;5.88;;;;;;;;;;4986085;28;20113;-47
2021/12/22 10:55:16;;;;;;;9.30;6.65;;;;;;;;;;4989277;28;20030;-54
2021/12/22 10:57:47;;;;;;;14.25;6.90;;;;;;;;;;4991500;28;20614;-51
2021/12/22 11:00:20;;;;;;;16.80;7.93;;;;;;;;;;4985799;28;20030;-53
2021/12/22 11:03:02;;;;;;;9.63;6.20;;;;;;;;;;4988197;28;20123;-50
2021/12/22 11:05:29;;;;;;;10.43;6.50;;;;;;;;;;4988898;28;20139;-53
2021/12/22 11:07:57;;;;;;;10.63;6.95;;;;;;;;;;4991232;28;20041;-55
2021/12/22 11:10:29;;;;;;;10.85;7.25;;;;;;;;;;4993978;28;20026;-55
2021/12/22 11:13:06;;;;;;;10.50;7.15;;;;;;;;;;4986487;28;20036;-50
2021/12/22 11:15:42;;;;;;;9.75;7.00;;;;;;;;;;4988037;28;20062;-53
2021/12/22 11:18:25;;;;;;;10.70;6.00;;;;;;;;;;4984413;28;20034;-53
2021/12/22 11:21:06;;;;;;;;;;;;;;;;;;4991092;28;20743;-55
2021/12/22 11:23:31;;;;;;;17.52;7.18;;;;;;;;;;4988403;28;19930;-55
2021/12/22 11:25:57;;;;;;;8.57;5.97;;;;;;;;;;4988777;28;20036;-55
2021/12/22 11:28:24;;;;;;;12.40;6.40;;;;;;;;;;5007923;28;20069;-53
2021/12/22 11:30:50;;;;;;;9.73;7.03;;;;;;;;;;5026363;28;20029;-50
2021/12/22 11:33:16;;;;;;;14.88;8.32;;;;;;;;;;5024734;28;20038;-55
2021/12/22 11:35:42;;;;;;;17.60;7.05;;;;;;;;;;5022074;28;20037;-49
2021/12/22 11:38:09;;;;;;;15.65;8.27;;;;;;;;;;5017340;28;20044;-55
2021/12/22 11:40:35;;;;;;;11.18;5.97;;;;;;;;;;5023969;28;20084;-52
2021/12/22 11:43:01;;;;;;;8.73;6.45;;;;;;;;;;5016592;28;20029;-50
2021/12/22 11:45:27;;;;;;;10.10;6.15;;;;;;;;;;5032196;28;20106;-53
2021/12/22 11:47:57;;;;;;;11.07;7.40;;;;;;;;;;5026510;28;20047;-50
2021/12/22 11:50:26;;;;;;;14.43;7.63;;;;;;;;;;5023985;28;20083;-52
2021/12/22 11:52:58;;;;;;;11.07;6.95;;;;;;;;;;5018267;28;20030;-53
2021/12/22 11:55:38;;;;;;;12.02;7.40;;;;;;;;;;5021555;28;20036;-52
2021/12/22 11:58:25;;;;;;;9.57;6.65;;;;;;;;;;5026392;28;20518;-50
2021/12/22 12:00:50;;;;;;;9.48;6.35;;;;;;;;;;5026154;28;20117;-52
2021/12/22 12:03:21;;;;;;;9.77;6.38;;;;;;;;;;5022644;28;20113;-55
2021/12/22 12:06:26;;;;;;;12.23;6.60;;;;;;;;;;5024364;28;20083;-51
2021/12/22 12:08:56;;;;;;;10.15;6.32;;;;;;;;;;5025949;28;20490;-55
2021/12/22 12:11:36;;;;;;;11.25;5.20;;;;;;;;;;5026476;28;20033;-54
2021/12/22 12:14:07;;;;;;;11.35;5.30;;;;;;;;;;5021623;28;20079;-54
2021/12/22 12:22:35;;;;;;;8.88;5.22;;;;;;;;;;5029204;28;20048;-54
2021/12/22 12:25:12;;;;;;;10.43;4.80;;;;;;;;;;5025684;28;20478;-55
2021/12/22 12:27:53;;;;;;;10.52;5.03;;;;;;;;;;5023563;28;20042;-53
2021/12/22 12:30:40;;;;;;;10.52;5.38;;;;;;;;;;5026018;28;20038;-52
2021/12/22 12:33:08;;;;;;;10.85;5.88;;;;;;;;;;5025670;28;20033;-55
2021/12/22 12:35:37;;;;;;;12.73;6.20;;;;;;;;;;5021608;28;20109;-49
2021/12/22 12:38:14;;;;;;;8.18;5.22;;;;;;;;;;5020542;28;20032;-54
2021/12/22 12:40:57;;;;;;;8.98;5.10;;;;;;;;;;5016684;28;20022;-55
2021/12/22 12:46:27;;;;;;;7.05;6.05;;;;;;;;;;5026727;28;20099;-51
2021/12/22 12:49:07;;;;;;;9.85;6.03;;;;;;;;;;5018571;28;20109;-47
2021/12/22 12:51:39;;;;;;;9.85;5.85;;;;;;;;;;5021258;28;20053;-52
2021/12/22 12:54:07;;;;;;;10.80;6.60;;;;;;;;;;5027614;28;20025;-48
2021/12/22 12:56:35;;;;;;;11.88;6.82;;;;;;;;;;5023912;28;20041;-49
2021/12/22 12:59:15;;;;;;;10.45;7.03;;;;;;;;;;5026758;28;20029;-48
2021/12/22 13:01:46;;;;;;;8.80;6.35;;;;;;;;;;5027364;28;20032;-53
2021/12/22 13:04:23;;;;;;;12.60;6.55;;;;;;;;;;5023933;28;20036;-50
2021/12/22 13:06:51;;;;;;;19.70;9.40;;;;;;;;;;5021371;28;20029;-54
2021/12/22 13:09:27;;;;;;;17.60;9.48;;;;;;;;;;5028099;28;20092;-48
2021/12/22 13:12:01;;;;;;;15.82;8.50;;;;;;;;;;5032416;28;20029;-48
2021/12/22 13:17:18;;;;;;;13.18;7.13;;;;;;;;;;5025960;28;20514;-47
2021/12/22 13:19:47;;;;;;;12.00;6.68;;;;;;;;;;5025525;28;20108;-54
2021/12/22 13:22:20;;;;;;;12.52;5.70;;;;;;;;;;5024645;28;20049;-47
2021/12/22 13:24:47;;;;;;;8.88;6.28;;;;;;;;;;5032883;28;20486;-50
2021/12/22 13:27:28;;;;;;;8.88;6.90;;;;;;;;;;5028184;28;20037;-48
2021/12/22 13:30:13;;;;;;;13.48;8.10;;;;;;;;;;5022634;28;20025;-51
2021/12/22 13:33:00;;;;;;;11.45;7.25;;;;;;;;;;5021235;28;20072;-52
2021/12/22 13:35:41;;;;;;;15.48;7.60;;;;;;;;;;5019084;28;20143;-52
2021/12/22 13:38:28;;;;;;;12.00;7.22;;;;;;;;;;5022790;28;20032;-49
2021/12/22 13:40:56;;;;;;;10.65;6.78;;;;;;;;;;5024877;28;20402;-52
2021/12/22 13:43:25;;;;;;;10.23;5.97;;;;;;;;;;5024791;28;20022;-53
2021/12/22 13:45:55;;;;;;;11.45;5.40;;;;;;;;;;5021592;28;20125;-47
2021/12/22 13:48:27;;;;;;;10.77;5.30;;;;;;;;;;5030196;28;20517;-47
2021/12/22 13:50:55;;;;;;;8.48;5.25;;;;;;;;;;5024784;28;20029;-49
2021/12/22 13:53:21;;;;;;;10.30;4.80;;;;;;;;;;5023936;28;20025;-48
2021/12/22 13:55:49;;;;;;;8.82;5.70;;;;;;;;;;5022588;28;20032;-50
2021/12/22 13:58:31;;;;;;;17.83;6.55;;;;;;;;;;5017393;28;20034;-50
2021/12/22 14:01:12;;;;;;;12.20;6.00;;;;;;;;;;5025133;28;20030;-47
2021/12/22 14:03:38;;;;;;;18.48;7.50;;;;;;;;;;5029587;28;20049;-47
2021/12/22 14:06:08;;;;;;;11.40;6.57;;;;;;;;;;5018813;28;20025;-50
2021/12/22 14:08:35;;;;;;;23.02;7.10;;;;;;;;;;5021465;28;20030;-48
2021/12/22 14:11:02;;;;;;;13.90;7.82;;;;;;;;;;5018177;28;20048;-48
2021/12/22 14:13:29;;;;;;;11.52;5.70;;;;;;;;;;5018344;28;20072;-53
2021/12/22 14:15:56;;;;;;;17.83;5.50;;;;;;;;;;5023894;28;20387;-53
2021/12/22 14:18:35;;;;;;;11.13;5.43;;;;;;;;;;5027699;28;20474;-47
2021/12/22 14:21:00;;;;;;;11.20;5.38;;;;;;;;;;5030694;28;20107;-50
2021/12/22 14:23:26;;;;;;;13.52;5.95;;;;;;;;;;5022185;28;20132;-48
2021/12/22 14:26:06;;;;;;;14.05;5.40;;;;;;;;;;5017580;28;20068;-48
2021/12/22 14:28:35;;;;;;;12.07;6.03;;;;;;;;;;5024047;28;20555;-49
2021/12/22 14:31:07;;;;;;;12.73;5.25;;;;;;;;;;5023248;28;20615;-48
2021/12/22 14:33:33;;;;;;;11.40;5.47;;;;;;;;;;5023890;28;20030;-50
2021/12/22 14:36:03;;;;;;;10.02;5.82;;;;;;;;;;5020676;28;20075;-48
2021/12/22 14:38:33;;;;;;;11.18;4.53;;;;;;;;;;5024342;28;20458;-47
2021/12/22 14:41:11;;;;;;;5.90;4.63;;;;;;;;;;5015902;28;20040;-48
2021/12/22 14:43:39;;;;;;;8.63;4.50;;;;;;;;;;5022329;28;20099;-51
2021/12/22 14:46:07;;;;;;;12.52;5.93;;;;;;;;;;5024925;28;20029;-50
2021/12/22 14:48:44;;;;;;;14.68;6.93;;;;;;;;;;5026291;28;20072;-50
2021/12/22 14:51:09;;;;;;;15.05;8.63;;;;;;;;;;5020942;28;20038;-53
2021/12/22 14:53:48;;;;;;;16.23;8.95;;;;;;;;;;5014168;28;20657;-49
2021/12/22 14:56:19;;;;;;;18.08;9.75;;;;;;;;;;5019021;28;20045;-49
2021/12/22 14:58:47;;;;;;;17.65;9.48;;;;;;;;;;5026576;28;20030;-47
2021/12/22 15:01:14;;;;;;;13.90;8.38;;;;;;;;;;5020795;28;20040;-52
2021/12/22 15:03:41;;;;;;;18.20;10.80;;;;;;;;;;5021212;28;20030;-51
2021/12/22 15:06:09;;;;;;;28.45;12.80;;;;;;;;;;5029427;28;20041;-50
2021/12/22 15:08:36;;;;;;;17.13;11.18;;;;;;;;;;5025918;28;20359;-52
2021/12/22 15:11:02;;;;;;;18.30;9.50;;;;;;;;;;5024175;28;20408;-48
2021/12/22 15:13:29;;;;;;;13.65;8.25;;;;;;;;;;5030969;28;20427;-53